createdAt,value
2022-12-04T00:00:35.672Z,81.64
2022-12-04T00:03:03.353Z,82.02
2022-12-04T00:05:31.109Z,82.83
2022-12-04T00:08:00.225Z,83.18
2022-12-04T00:10:28.106Z,82.76
2022-12-04T00:12:55.751Z,82.59
2022-12-04T00:15:25.606Z,81.49
2022-12-04T00:17:54.345Z,82.14
2022-12-04T00:20:22.897Z,81.54
2022-12-04T00:22:50.793Z,82.15
2022-12-04T00:25:19.870Z,82.34
2022-12-04T00:27:47.451Z,82.20
2022-12-04T00:30:15.324Z,82.25
2022-12-04T00:32:42.980Z,82.71
2022-12-04T00:35:10.852Z,81.78
2022-12-04T00:37:38.713Z,81.62
2022-12-04T00:40:08.049Z,82.55
2022-12-04T00:42:37.041Z,83.14
2022-12-04T00:45:05.227Z,82.33
2022-12-04T00:47:32.845Z,82.94
2022-12-04T00:50:00.487Z,83.68
2022-12-04T00:52:28.260Z,83.51
2022-12-04T00:54:56.640Z,82.38
2022-12-04T00:57:24.200Z,82.73
2022-12-04T00:59:53.565Z,83.03
2022-12-04T01:02:21.447Z,83.33
2022-12-04T01:04:49.118Z,82.95
2022-12-04T01:07:16.764Z,83.53
2022-12-04T01:09:44.406Z,84.63
2022-12-04T01:12:16.154Z,84.08
2022-12-04T01:14:46.744Z,82.77
2022-12-04T01:17:15.793Z,83.21
2022-12-04T01:19:43.652Z,82.87
2022-12-04T01:22:11.503Z,82.26
2022-12-04T01:24:39.114Z,82.73
2022-12-04T01:27:06.707Z,82.54
2022-12-04T01:29:34.423Z,82.64
2022-12-04T01:32:02.142Z,83.06
2022-12-04T01:34:31.411Z,82.02
2022-12-04T01:36:59.055Z,82.00
2022-12-04T01:39:26.671Z,81.72
2022-12-04T01:41:54.281Z,82.82
2022-12-04T01:44:23.592Z,81.90
2022-12-04T01:46:52.959Z,82.96
2022-12-04T01:49:24.653Z,83.02
2022-12-04T01:51:57.128Z,82.08
2022-12-04T01:54:29.045Z,81.48
2022-12-04T01:57:01.305Z,81.80
2022-12-04T01:59:33.247Z,81.53
2022-12-04T02:02:05.167Z,80.84
2022-12-04T02:04:35.316Z,81.88
2022-12-04T02:07:05.057Z,81.46
2022-12-04T02:09:34.044Z,80.52
2022-12-04T02:12:08.674Z,80.57
2022-12-04T02:14:45.591Z,81.02
2022-12-04T02:17:21.420Z,81.21
2022-12-04T02:20:14.160Z,82.16
2022-12-04T02:23:20.845Z,81.83
2022-12-04T02:25:58.282Z,82.91
2022-12-04T02:28:33.305Z,82.70
2022-12-04T02:31:03.262Z,82.40
2022-12-04T02:33:35.956Z,82.13
2022-12-04T02:36:08.101Z,81.83
2022-12-04T02:38:39.903Z,82.04
2022-12-04T02:41:12.420Z,82.65
2022-12-04T02:43:46.341Z,82.71
2022-12-04T02:46:19.715Z,83.59
2022-12-04T02:48:50.441Z,83.18
2022-12-04T02:51:21.378Z,83.37
2022-12-04T02:53:53.784Z,82.81
2022-12-04T02:56:27.522Z,82.49
2022-12-04T02:58:59.840Z,81.87
2022-12-04T03:01:31.207Z,82.50
2022-12-04T03:04:01.756Z,82.32
2022-12-04T03:06:33.536Z,82.42
2022-12-04T03:09:07.697Z,82.72
2022-12-04T03:11:37.141Z,82.38
2022-12-04T03:14:14.356Z,82.39
2022-12-04T03:16:43.677Z,81.15
2022-12-04T03:19:17.549Z,81.50
2022-12-04T03:21:49.537Z,82.77
2022-12-04T03:24:20.994Z,81.93
2022-12-04T03:26:52.269Z,82.52
2022-12-04T03:29:24.472Z,82.71
2022-12-04T03:31:58.775Z,82.54
2022-12-04T03:34:35.047Z,82.96
2022-12-04T03:37:09.558Z,83.06
2022-12-04T03:39:39.836Z,82.99
2022-12-04T03:42:12.848Z,83.34
2022-12-04T03:44:47.476Z,83.82
2022-12-04T03:47:20.333Z,82.79
2022-12-04T03:49:56.313Z,82.13
2022-12-04T03:52:28.301Z,81.83
2022-12-04T03:55:01.891Z,82.48
2022-12-04T03:57:34.380Z,82.65
2022-12-04T04:00:08.540Z,83.04
2022-12-04T04:02:40.970Z,83.44
2022-12-04T04:05:10.949Z,83.13
2022-12-04T04:07:43.507Z,83.58
2022-12-04T04:10:16.709Z,84.13
2022-12-04T04:13:13.801Z,83.06
2022-12-04T04:16:05.190Z,83.36
2022-12-04T04:18:47.518Z,82.79
2022-12-04T04:21:37.659Z,83.14
2022-12-04T04:24:16.092Z,83.33
2022-12-04T04:26:46.972Z,82.80
2022-12-04T04:29:14.978Z,82.55
2022-12-04T04:31:51.300Z,82.08
2022-12-04T04:34:23.176Z,82.71
2022-12-04T04:36:56.594Z,82.19
2022-12-04T04:39:34.120Z,82.49
2022-12-04T04:42:05.920Z,83.05
2022-12-04T04:44:41.015Z,82.02
2022-12-04T04:47:17.325Z,81.87
2022-12-04T04:49:47.234Z,82.25
2022-12-04T04:52:15.875Z,82.09
2022-12-04T04:54:44.308Z,82.22
2022-12-04T04:57:12.151Z,81.83
2022-12-04T04:59:39.878Z,82.24
2022-12-04T05:02:07.547Z,83.13
2022-12-04T05:04:36.602Z,83.13
2022-12-04T05:07:04.211Z,83.22
2022-12-04T05:09:34.604Z,82.52
2022-12-04T05:12:04.750Z,82.12
2022-12-04T05:14:32.401Z,82.06
2022-12-04T05:17:01.983Z,82.35
2022-12-04T05:19:50.783Z,81.99
2022-12-04T05:22:20.049Z,81.76
2022-12-04T05:24:47.700Z,81.59
2022-12-04T05:27:15.546Z,81.33
2022-12-04T05:29:43.281Z,82.13
2022-12-04T05:32:10.962Z,81.92
2022-12-04T05:34:38.607Z,82.29
2022-12-04T05:37:06.370Z,82.50
2022-12-04T05:39:35.805Z,84.33
2022-12-04T05:42:03.479Z,82.57
2022-12-04T05:44:31.104Z,82.07
2022-12-04T05:46:58.847Z,81.61
2022-12-04T05:49:26.668Z,82.13
2022-12-04T05:51:54.321Z,81.82
2022-12-04T05:54:22.056Z,81.59
2022-12-04T05:56:51.256Z,81.22
2022-12-04T05:59:19.581Z,82.03
2022-12-04T06:01:47.701Z,82.78
2022-12-04T06:04:15.384Z,81.88
2022-12-04T06:06:43.048Z,81.66
2022-12-04T06:09:11.810Z,82.72
2022-12-04T06:11:42.203Z,81.95
2022-12-04T06:14:14.672Z,81.34
2022-12-04T06:16:44.681Z,81.56
2022-12-04T06:19:15.964Z,82.57
2022-12-04T06:21:45.818Z,82.23
2022-12-04T06:24:15.804Z,81.78
2022-12-04T06:27:03.981Z,82.63
2022-12-04T06:29:33.228Z,81.34
2022-12-04T06:32:02.060Z,81.92
2022-12-04T06:34:30.013Z,81.35
2022-12-04T06:36:57.728Z,82.73
2022-12-04T06:39:25.370Z,82.01
2022-12-04T06:41:53.020Z,82.63
2022-12-04T06:44:20.699Z,83.08
2022-12-04T06:46:50.359Z,84.14
2022-12-04T06:49:22.756Z,85.02
2022-12-04T06:51:50.429Z,82.96
2022-12-04T06:54:18.026Z,82.81
2022-12-04T06:56:45.614Z,82.82
2022-12-04T06:59:13.649Z,82.05
2022-12-04T07:01:41.334Z,81.93
2022-12-04T07:04:10.300Z,82.48
2022-12-04T07:06:39.929Z,82.14
2022-12-04T07:09:11.089Z,81.46
2022-12-04T07:11:39.538Z,81.12
2022-12-04T07:14:07.274Z,81.29
2022-12-04T07:16:40.320Z,81.62
2022-12-04T07:19:10.450Z,82.76
2022-12-04T07:21:38.112Z,83.90
2022-12-04T07:24:05.910Z,82.62
2022-12-04T07:26:33.555Z,82.66
2022-12-04T07:29:02.439Z,83.15
2022-12-04T07:31:30.639Z,83.98
2022-12-04T07:33:58.914Z,82.10
2022-12-04T07:36:28.602Z,82.48
2022-12-04T07:38:57.269Z,82.20
2022-12-04T07:41:25.337Z,82.24
2022-12-04T07:43:53.047Z,82.12
2022-12-04T07:46:22.898Z,83.63
2022-12-04T07:48:50.717Z,82.68
2022-12-04T07:51:19.874Z,81.77
2022-12-04T07:53:49.820Z,83.12
2022-12-04T07:56:18.216Z,82.59
2022-12-04T07:58:45.870Z,82.21
2022-12-04T08:01:16.169Z,82.55
2022-12-04T08:03:48.596Z,83.65
2022-12-04T08:06:17.752Z,84.22
2022-12-04T08:08:45.411Z,83.21
2022-12-04T08:11:16.934Z,83.46
2022-12-04T08:13:44.930Z,84.09
2022-12-04T08:16:13.293Z,83.99
2022-12-04T08:18:41.572Z,82.87
2022-12-04T08:21:11.679Z,85.20
2022-12-04T08:23:42.864Z,83.18
2022-12-04T08:26:11.133Z,83.23
2022-12-04T08:28:40.656Z,84.78
2022-12-04T08:31:11.027Z,83.43
2022-12-04T08:33:38.744Z,85.15
2022-12-04T08:36:08.551Z,84.21
2022-12-04T08:38:36.325Z,83.09
2022-12-04T08:41:06.243Z,84.01
2022-12-04T08:43:34.312Z,84.07
2022-12-04T08:46:04.984Z,84.46
2022-12-04T08:48:33.165Z,83.84
2022-12-04T08:51:01.468Z,83.62
2022-12-04T08:53:29.080Z,84.96
2022-12-04T08:55:56.922Z,85.41
2022-12-04T08:58:24.695Z,85.42
2022-12-04T09:00:52.321Z,84.78
2022-12-04T09:03:27.521Z,86.34
2022-12-04T09:05:59.946Z,85.07
2022-12-04T09:08:27.550Z,85.69
2022-12-04T09:10:55.349Z,85.51
2022-12-04T09:13:22.964Z,85.03
2022-12-04T09:15:50.663Z,84.18
2022-12-04T09:18:18.369Z,84.37
2022-12-04T09:20:56.509Z,85.24
2022-12-04T09:23:24.178Z,85.15
2022-12-04T09:25:52.240Z,87.13
2022-12-04T09:28:20.161Z,85.52
2022-12-04T09:30:57.502Z,86.71
2022-12-04T09:33:25.282Z,87.52
2022-12-04T09:35:54.418Z,86.33
2022-12-04T09:38:22.227Z,85.66
2022-12-04T09:40:58.967Z,84.95
2022-12-04T09:43:32.328Z,85.36
2022-12-04T09:46:05.590Z,84.82
2022-12-04T09:48:36.805Z,84.66
2022-12-04T09:51:07.888Z,85.14
2022-12-04T09:53:44.985Z,84.36
2022-12-04T09:56:14.959Z,84.57
2022-12-04T09:58:48.181Z,83.96
2022-12-04T10:01:23.601Z,85.27
2022-12-04T10:03:51.638Z,84.24
2022-12-04T10:06:25.248Z,84.68
2022-12-04T10:09:01.207Z,84.73
2022-12-04T10:11:36.395Z,84.52
2022-12-04T10:14:18.142Z,86.13
2022-12-04T10:17:14.566Z,86.19
2022-12-04T10:19:50.931Z,86.92
2022-12-04T10:22:26.809Z,85.13
2022-12-04T10:24:57.217Z,86.28
2022-12-04T10:27:29.084Z,85.68
2022-12-04T10:30:00.217Z,84.90
2022-12-04T10:32:32.911Z,85.97
2022-12-04T10:35:16.333Z,85.98
2022-12-04T10:37:46.824Z,86.02
2022-12-04T10:40:23.412Z,85.00
2022-12-04T10:42:57.491Z,85.32
2022-12-04T10:45:25.256Z,85.51
2022-12-04T10:47:54.381Z,84.33
2022-12-04T10:50:25.052Z,85.91
2022-12-04T10:52:54.076Z,85.66
2022-12-04T10:55:33.416Z,85.41
2022-12-04T10:58:02.622Z,85.51
2022-12-04T11:00:32.555Z,86.04
2022-12-04T11:03:02.004Z,86.29
2022-12-04T11:05:33.583Z,84.10
2022-12-04T11:08:05.907Z,87.02
2022-12-04T11:10:37.642Z,86.85
2022-12-04T11:13:07.253Z,87.12
2022-12-04T11:15:37.315Z,85.56
2022-12-04T11:18:09.108Z,84.86
2022-12-04T11:20:37.111Z,85.47
2022-12-04T11:23:06.487Z,85.21
2022-12-04T11:25:38.946Z,84.22
2022-12-04T11:28:06.837Z,83.44
2022-12-04T11:30:38.068Z,83.11
2022-12-04T11:33:16.116Z,83.03
2022-12-04T11:35:44.111Z,81.67
2022-12-04T11:38:17.392Z,82.45
2022-12-04T11:40:48.994Z,82.30
2022-12-04T11:43:19.571Z,85.67
2022-12-04T11:45:55.728Z,85.79
2022-12-04T11:48:23.605Z,86.06
2022-12-04T11:50:58.526Z,84.52
2022-12-04T11:53:40.653Z,84.79
2022-12-04T11:56:23.665Z,84.39
2022-12-04T11:59:24.277Z,84.07
2022-12-04T12:01:58.741Z,85.17
2022-12-04T12:05:08.121Z,85.65
2022-12-04T12:07:49.834Z,86.22
2022-12-04T12:10:27.110Z,86.07
2022-12-04T12:13:06.722Z,87.36
2022-12-04T12:15:42.834Z,86.46
2022-12-04T12:18:32.398Z,86.16
2022-12-04T12:21:08.832Z,87.08
2022-12-04T12:23:51.731Z,87.67
2022-12-04T12:26:21.022Z,87.62
2022-12-04T12:29:10.131Z,87.69
2022-12-04T12:31:53.457Z,87.17
2022-12-04T12:34:30.651Z,87.27
2022-12-04T12:37:01.146Z,87.31
2022-12-04T12:39:37.962Z,86.52
2022-12-04T12:42:13.526Z,87.91
2022-12-04T12:44:47.750Z,89.20
2022-12-04T12:47:20.160Z,89.09
2022-12-04T12:49:54.087Z,89.22
2022-12-04T12:52:39.306Z,88.91
2022-12-04T12:55:17.065Z,88.74
2022-12-04T12:57:50.819Z,88.56
2022-12-04T13:00:21.547Z,89.59
2022-12-04T13:02:55.313Z,90.54
2022-12-04T13:05:28.855Z,91.63
2022-12-04T13:08:05.023Z,90.42
2022-12-04T13:10:37.331Z,90.58
2022-12-04T13:13:11.990Z,89.47
2022-12-04T13:15:44.582Z,89.70
2022-12-04T13:18:24.164Z,90.43
2022-12-04T13:20:56.221Z,90.34
2022-12-04T13:23:40.228Z,90.50
2022-12-04T13:26:16.288Z,89.79
2022-12-04T13:28:54.557Z,88.98
2022-12-04T13:31:33.500Z,90.06
2022-12-04T13:34:34.958Z,90.26
2022-12-04T13:37:23.234Z,90.37
2022-12-04T13:40:29.939Z,89.86
2022-12-04T13:43:21.248Z,90.44
2022-12-04T13:45:53.026Z,90.20
2022-12-04T13:48:36.757Z,90.17
2022-12-04T13:51:08.501Z,90.28
2022-12-04T13:53:39.743Z,90.47
2022-12-04T13:56:13.509Z,90.33
2022-12-04T13:58:43.324Z,90.24
2022-12-04T14:01:25.971Z,90.29
2022-12-04T14:03:57.395Z,90.80
2022-12-04T14:06:27.865Z,90.99
2022-12-04T14:08:59.668Z,90.40
2022-12-04T14:11:29.436Z,89.36
2022-12-04T14:14:03.627Z,89.62
2022-12-04T14:16:41.234Z,90.67
2022-12-04T14:19:09.866Z,90.81
2022-12-04T14:21:41.613Z,90.98
2022-12-04T14:24:17.945Z,91.91
2022-12-04T14:27:10.540Z,92.75
2022-12-04T14:29:48.483Z,91.97
2022-12-04T14:32:22.585Z,92.44
2022-12-04T14:34:51.020Z,92.03
2022-12-04T14:37:26.170Z,92.27
2022-12-04T14:39:54.445Z,92.22
2022-12-04T14:42:26.638Z,93.08
2022-12-04T14:44:56.921Z,93.49
2022-12-04T14:47:39.715Z,93.34
2022-12-04T14:50:20.619Z,93.48
2022-12-04T14:52:54.135Z,91.96
2022-12-04T14:55:31.827Z,92.77
2022-12-04T14:58:21.691Z,92.36
2022-12-04T15:00:53.756Z,91.90
2022-12-04T15:03:23.710Z,92.43
2022-12-04T15:05:52.125Z,92.98
2022-12-04T15:08:20.275Z,91.80
2022-12-04T15:11:05.503Z,92.13
2022-12-04T15:13:34.725Z,91.98
2022-12-04T15:16:10.006Z,92.19
2022-12-04T15:18:39.819Z,92.73
2022-12-04T15:21:11.543Z,92.35
2022-12-04T15:23:41.797Z,92.99
2022-12-04T15:26:14.306Z,94.05
2022-12-04T15:28:46.353Z,94.14
2022-12-04T15:31:18.325Z,93.17
2022-12-04T15:33:50.303Z,93.51
2022-12-04T15:36:21.289Z,92.99
2022-12-04T15:38:51.145Z,92.94
2022-12-04T15:41:30.420Z,92.83
2022-12-04T15:43:58.249Z,92.38
2022-12-04T15:46:31.081Z,93.67
2022-12-04T15:49:18.495Z,92.83
2022-12-04T15:51:47.615Z,93.29
2022-12-04T15:54:22.256Z,92.71
2022-12-04T15:56:59.568Z,93.38
2022-12-04T15:59:29.434Z,92.50
2022-12-04T16:02:01.893Z,92.48
2022-12-04T16:04:35.397Z,92.47
2022-12-04T16:07:03.279Z,91.71
2022-12-04T16:09:30.972Z,93.13
2022-12-04T16:12:00.776Z,92.17
2022-12-04T16:14:28.840Z,92.20
2022-12-04T16:17:06.002Z,92.00
2022-12-04T16:19:38.115Z,92.28
2022-12-04T16:22:13.010Z,92.70
2022-12-04T16:24:40.891Z,93.69
2022-12-04T16:27:13.879Z,93.04
2022-12-04T16:29:41.615Z,92.92
2022-12-04T16:32:12.390Z,93.49
2022-12-04T16:34:41.644Z,93.48
2022-12-04T16:37:14.226Z,91.91
2022-12-04T16:39:41.935Z,92.80
2022-12-04T16:42:19.701Z,92.74
2022-12-04T16:44:47.440Z,92.48
2022-12-04T16:47:16.204Z,93.07
2022-12-04T16:49:46.315Z,92.00
2022-12-04T16:52:14.461Z,92.25
2022-12-04T16:54:42.369Z,91.92
2022-12-04T16:57:10.436Z,92.79
2022-12-04T16:59:38.487Z,92.11
2022-12-04T17:02:14.816Z,92.06
2022-12-04T17:04:42.461Z,91.21
2022-12-04T17:07:11.464Z,92.06
2022-12-04T17:09:39.062Z,91.65
2022-12-04T17:12:06.848Z,92.16
2022-12-04T17:14:34.431Z,91.36
2022-12-04T17:17:02.051Z,92.52
2022-12-04T17:19:29.683Z,92.48
2022-12-04T17:21:58.200Z,91.83
2022-12-04T17:24:27.191Z,92.36
2022-12-04T17:26:54.860Z,93.09
2022-12-04T17:29:22.436Z,91.84
2022-12-04T17:31:50.140Z,91.45
2022-12-04T17:34:17.832Z,91.44
2022-12-04T17:36:45.413Z,91.84
2022-12-04T17:39:13.472Z,92.29
2022-12-04T17:41:42.761Z,92.81
2022-12-04T17:44:10.339Z,93.02
2022-12-04T17:46:37.958Z,92.77
2022-12-04T17:49:07.461Z,93.12
2022-12-04T17:51:35.736Z,93.71
2022-12-04T17:54:03.336Z,94.09
2022-12-04T17:56:30.973Z,92.59
2022-12-04T17:59:00.115Z,92.31
2022-12-04T18:01:30.068Z,92.76
2022-12-04T18:03:59.698Z,91.84
2022-12-04T18:06:29.386Z,92.13
2022-12-04T18:08:57.537Z,91.25
2022-12-04T18:11:27.468Z,92.33
2022-12-04T18:13:57.152Z,91.47
2022-12-04T18:16:27.449Z,91.25
2022-12-04T18:18:56.557Z,91.68
2022-12-04T18:21:24.688Z,91.77
2022-12-04T18:23:52.809Z,91.45
2022-12-04T18:26:23.626Z,91.65
2022-12-04T18:28:52.756Z,92.01
2022-12-04T18:31:20.801Z,90.83
2022-12-04T18:33:50.204Z,92.02
2022-12-04T18:36:20.363Z,90.19
2022-12-04T18:38:53.373Z,91.25
2022-12-04T18:41:46.690Z,92.21
2022-12-04T18:44:15.357Z,91.00
2022-12-04T18:46:43.577Z,91.22
2022-12-04T18:49:12.965Z,91.93
2022-12-04T18:51:46.985Z,90.96
2022-12-04T18:54:19.813Z,91.71
2022-12-04T18:56:47.808Z,90.74
2022-12-04T18:59:17.827Z,90.34
2022-12-04T19:01:45.672Z,91.20
2022-12-04T19:04:17.287Z,91.06
2022-12-04T19:06:47.041Z,90.58
2022-12-04T19:09:16.752Z,90.62
2022-12-04T19:11:45.140Z,89.89
2022-12-04T19:14:22.426Z,89.38
2022-12-04T19:16:51.456Z,89.81
2022-12-04T19:19:20.902Z,89.71
2022-12-04T19:21:48.562Z,90.86
2022-12-04T19:24:16.128Z,90.18
2022-12-04T19:26:44.874Z,89.70
2022-12-04T19:29:14.136Z,89.95
2022-12-04T19:31:42.209Z,89.61
2022-12-04T19:34:10.041Z,90.09
2022-12-04T19:36:40.232Z,90.38
2022-12-04T19:39:08.036Z,90.49
2022-12-04T19:41:37.409Z,89.37
2022-12-04T19:44:20.025Z,89.58
2022-12-04T19:46:53.398Z,89.27
2022-12-04T19:49:21.076Z,89.15
2022-12-04T19:51:50.458Z,89.00
2022-12-04T19:54:19.170Z,89.08
2022-12-04T19:56:51.125Z,89.34
2022-12-04T19:59:19.715Z,88.62
2022-12-04T20:01:47.687Z,88.02
2022-12-04T20:04:15.630Z,89.59
2022-12-04T20:06:45.727Z,89.14
2022-12-04T20:09:19.264Z,89.21
2022-12-04T20:11:47.144Z,90.01
2022-12-04T20:14:15.428Z,89.27
2022-12-04T20:16:43.213Z,88.64
2022-12-04T20:19:17.150Z,89.35
2022-12-04T20:21:46.299Z,89.77
2022-12-04T20:24:17.039Z,88.78
2022-12-04T20:26:47.073Z,89.63
2022-12-04T20:29:18.973Z,89.74
2022-12-04T20:31:47.854Z,88.54
2022-12-04T20:34:17.212Z,88.75
2022-12-04T20:36:47.164Z,88.82
2022-12-04T20:39:17.850Z,89.49
2022-12-04T20:41:46.350Z,89.68
2022-12-04T20:44:17.049Z,89.22
2022-12-04T20:46:45.277Z,88.59
2022-12-04T20:49:21.077Z,89.36
2022-12-04T20:51:50.069Z,89.66
2022-12-04T20:54:21.995Z,89.60
2022-12-04T20:56:51.992Z,89.14
2022-12-04T20:59:21.494Z,88.17
2022-12-04T21:01:49.944Z,87.44
2022-12-04T21:04:18.670Z,88.24
2022-12-04T21:06:47.576Z,88.75
2022-12-04T21:09:17.071Z,88.60
2022-12-04T21:11:47.982Z,88.62
2022-12-04T21:14:35.336Z,89.81
2022-12-04T21:17:03.509Z,89.78
2022-12-04T21:19:32.204Z,89.80
2022-12-04T21:21:59.885Z,88.67
2022-12-04T21:24:28.696Z,88.61
2022-12-04T21:26:57.757Z,88.48
2022-12-04T21:29:25.425Z,88.49
2022-12-04T21:31:53.223Z,88.78
2022-12-04T21:34:21.005Z,88.47
2022-12-04T21:36:48.706Z,88.57
2022-12-04T21:39:16.820Z,88.07
2022-12-04T21:42:02.189Z,89.47
2022-12-04T21:44:31.449Z,89.45
2022-12-04T21:46:59.356Z,88.77
2022-12-04T21:49:28.460Z,88.78
2022-12-04T21:51:58.151Z,88.65
2022-12-04T21:54:26.565Z,88.74
2022-12-04T21:56:54.487Z,89.06
2022-12-04T21:59:22.299Z,89.53
2022-12-04T22:01:52.393Z,89.37
2022-12-04T22:04:20.061Z,88.46
2022-12-04T22:06:47.661Z,88.78
2022-12-04T22:09:15.460Z,88.51
2022-12-04T22:11:43.553Z,88.72
2022-12-04T22:14:12.135Z,89.14
2022-12-04T22:16:42.436Z,88.99
2022-12-04T22:19:12.719Z,89.49
2022-12-04T22:21:40.596Z,89.46
2022-12-04T22:24:10.327Z,90.86
2022-12-04T22:26:38.928Z,91.60
2022-12-04T22:29:27.177Z,89.91
2022-12-04T22:31:54.471Z,90.42
2022-12-04T22:34:23.344Z,90.01
2022-12-04T22:36:51.158Z,88.79
2022-12-04T22:39:18.798Z,90.24
2022-12-04T22:41:46.378Z,89.08
2022-12-04T22:44:13.903Z,88.35
2022-12-04T22:46:41.531Z,88.52
2022-12-04T22:49:09.087Z,88.60
2022-12-04T22:51:37.986Z,89.09
2022-12-04T22:54:07.835Z,89.47
2022-12-04T22:56:35.418Z,89.63
2022-12-04T22:59:03.070Z,89.22
2022-12-04T23:01:32.900Z,90.25
2022-12-04T23:04:01.356Z,90.05
2022-12-04T23:06:30.843Z,90.07
2022-12-04T23:09:01.952Z,89.65
2022-12-04T23:11:29.809Z,89.39
2022-12-04T23:14:00.157Z,89.64
2022-12-04T23:16:29.432Z,89.86
2022-12-04T23:18:57.389Z,89.67
2022-12-04T23:21:25.372Z,90.36
2022-12-04T23:23:54.795Z,90.12
2022-12-04T23:26:27.819Z,90.24
2022-12-04T23:28:57.068Z,91.68
2022-12-04T23:31:25.254Z,90.22
2022-12-04T23:33:52.930Z,89.91
2022-12-04T23:36:20.809Z,90.01
2022-12-04T23:38:48.783Z,89.75
2022-12-04T23:41:18.338Z,90.36
2022-12-04T23:43:48.145Z,90.63
2022-12-04T23:46:18.245Z,89.54
2022-12-04T23:48:46.397Z,89.00
2022-12-04T23:51:17.044Z,89.59
2022-12-04T23:53:45.333Z,89.79
2022-12-04T23:56:15.810Z,89.39
2022-12-04T23:58:44.453Z,89.82
